createdAt,value
2018-12-13T00:00:51.173Z,4.00
2018-12-13T00:03:20.222Z,3.90
2018-12-13T00:05:49.316Z,3.90
2018-12-13T00:08:18.490Z,3.90
2018-12-13T00:10:47.525Z,3.90
2018-12-13T00:13:16.693Z,4.00
2018-12-13T00:15:45.783Z,4.00
2018-12-13T00:18:14.907Z,4.10
2018-12-13T00:20:44.006Z,4.10
2018-12-13T00:23:13.089Z,4.10
2018-12-13T00:25:42.215Z,4.00
2018-12-13T00:28:11.389Z,3.90
2018-12-13T00:30:40.783Z,3.90
2018-12-13T00:33:09.835Z,3.80
2018-12-13T00:35:38.901Z,3.70
2018-12-13T00:38:07.927Z,3.70
2018-12-13T00:40:36.989Z,3.70
2018-12-13T00:43:06.168Z,3.70
2018-12-13T00:45:35.333Z,3.70
2018-12-13T00:48:04.529Z,3.70
2018-12-13T00:50:33.618Z,3.80
2018-12-13T00:53:02.808Z,3.80
2018-12-13T00:55:31.907Z,3.80
2018-12-13T00:58:00.946Z,3.80
2018-12-13T01:00:30.056Z,3.90
2018-12-13T01:02:59.184Z,3.90
2018-12-13T01:05:28.319Z,3.90
2018-12-13T01:07:57.456Z,4.00
2018-12-13T01:10:26.575Z,4.10
2018-12-13T01:12:55.709Z,4.10
2018-12-13T01:15:26.762Z,4.00
2018-12-13T01:17:55.805Z,4.00
2018-12-13T01:20:24.882Z,3.90
2018-12-13T01:22:54.178Z,3.90
2018-12-13T01:25:23.344Z,3.90
2018-12-13T01:27:52.535Z,3.90
2018-12-13T01:30:21.663Z,3.90
2018-12-13T01:32:50.774Z,3.90
2018-12-13T01:35:19.940Z,3.80
2018-12-13T01:37:49.055Z,3.70
2018-12-13T01:40:18.112Z,3.70
2018-12-13T01:42:47.169Z,3.70
2018-12-13T01:45:16.357Z,3.70
2018-12-13T01:47:45.397Z,3.60
2018-12-13T01:50:14.709Z,3.60
2018-12-13T01:52:43.793Z,3.50
2018-12-13T01:55:12.901Z,3.50
2018-12-13T01:57:42.011Z,3.40
2018-12-13T02:00:11.231Z,3.40
2018-12-13T02:02:40.470Z,3.40
2018-12-13T02:05:09.853Z,3.30
2018-12-13T02:07:38.961Z,3.30
2018-12-13T02:10:08.242Z,3.40
2018-12-13T02:12:37.351Z,3.30
2018-12-13T02:15:07.059Z,3.30
2018-12-13T02:17:36.177Z,3.20
2018-12-13T02:20:05.724Z,3.20
2018-12-13T02:22:34.919Z,3.10
2018-12-13T02:25:04.135Z,3.10
2018-12-13T02:27:33.247Z,3.00
2018-12-13T02:30:04.608Z,3.00
2018-12-13T02:32:33.907Z,2.90
2018-12-13T02:35:03.183Z,2.90
2018-12-13T02:37:32.357Z,2.90
2018-12-13T02:40:01.553Z,2.80
2018-12-13T02:42:30.698Z,2.80
2018-12-13T02:44:59.758Z,2.80
2018-12-13T02:47:28.902Z,2.70
2018-12-13T02:49:57.932Z,2.70
2018-12-13T02:52:26.969Z,2.70
2018-12-13T02:54:56.002Z,2.60
2018-12-13T02:57:25.112Z,2.60
2018-12-13T02:59:54.357Z,2.50
2018-12-13T03:02:23.407Z,2.40
2018-12-13T03:04:52.450Z,2.40
2018-12-13T03:07:21.479Z,2.40
2018-12-13T03:09:50.535Z,2.30
2018-12-13T03:12:19.766Z,2.20
2018-12-13T03:14:48.789Z,2.20
2018-12-13T03:17:18.049Z,2.20
2018-12-13T03:19:47.157Z,2.20
2018-12-13T03:22:16.281Z,2.20
2018-12-13T03:24:45.350Z,2.10
2018-12-13T03:27:14.606Z,2.10
2018-12-13T03:29:43.681Z,2.10
2018-12-13T03:32:12.869Z,2.10
2018-12-13T03:34:42.579Z,2.10
2018-12-13T03:37:11.664Z,2.00
2018-12-13T03:39:40.686Z,2.00
2018-12-13T03:42:10.187Z,2.00
2018-12-13T03:44:39.228Z,2.00
2018-12-13T03:47:08.393Z,1.90
2018-12-13T03:49:37.518Z,1.90
2018-12-13T03:52:06.737Z,1.90
2018-12-13T03:54:35.775Z,1.80
2018-12-13T03:57:04.847Z,1.80
2018-12-13T03:59:34.034Z,1.80
2018-12-13T04:02:03.129Z,1.80
2018-12-13T04:04:32.140Z,1.80
2018-12-13T04:07:01.227Z,1.70
2018-12-13T04:09:30.273Z,1.70
2018-12-13T04:11:59.349Z,1.70
2018-12-13T04:14:28.425Z,1.70
2018-12-13T04:16:57.655Z,1.70
2018-12-13T04:19:26.675Z,1.70
2018-12-13T04:21:55.844Z,1.70
2018-12-13T04:24:24.921Z,1.70
2018-12-13T04:26:53.976Z,1.70
2018-12-13T04:29:23.025Z,1.70
2018-12-13T04:31:52.176Z,1.60
2018-12-13T04:34:21.211Z,1.50
2018-12-13T04:36:50.263Z,1.60
2018-12-13T04:39:19.284Z,1.60
2018-12-13T04:41:48.287Z,1.50
2018-12-13T04:44:17.391Z,1.50
2018-12-13T04:46:46.521Z,1.50
2018-12-13T04:49:15.631Z,1.40
2018-12-13T04:51:44.659Z,1.30
2018-12-13T04:54:13.671Z,1.40
2018-12-13T04:56:42.721Z,1.30
2018-12-13T04:59:11.764Z,1.40
2018-12-13T05:01:40.769Z,1.30
2018-12-13T05:04:09.823Z,1.30
2018-12-13T05:06:38.828Z,1.40
2018-12-13T05:09:08.702Z,1.30
2018-12-13T05:11:37.737Z,1.30
2018-12-13T05:14:06.764Z,1.20
2018-12-13T05:16:35.949Z,1.40
2018-12-13T05:19:05.065Z,1.30
2018-12-13T05:21:34.113Z,1.30
2018-12-13T05:24:03.205Z,1.30
2018-12-13T05:26:32.488Z,1.20
2018-12-13T05:29:01.747Z,1.10
2018-12-13T05:31:30.859Z,1.10
2018-12-13T05:34:00.042Z,1.00
2018-12-13T05:36:29.882Z,1.10
2018-12-13T05:38:58.973Z,1.00
2018-12-13T05:41:28.035Z,1.00
2018-12-13T05:43:57.081Z,1.00
2018-12-13T05:46:26.296Z,1.10
2018-12-13T05:48:55.290Z,1.10
2018-12-13T05:51:24.426Z,1.30
2018-12-13T05:53:53.520Z,1.30
2018-12-13T05:56:22.546Z,1.40
2018-12-13T05:58:51.909Z,1.60
2018-12-13T06:01:21.046Z,1.70
2018-12-13T06:03:50.134Z,1.80
2018-12-13T06:06:19.220Z,1.90
2018-12-13T06:08:48.306Z,1.90
2018-12-13T06:11:17.367Z,1.90
2018-12-13T06:13:46.442Z,2.00
2018-12-13T06:16:15.531Z,2.00
2018-12-13T06:18:44.627Z,1.90
2018-12-13T06:21:13.774Z,1.90
2018-12-13T06:23:42.869Z,1.90
2018-12-13T06:26:12.059Z,1.90
2018-12-13T06:28:41.134Z,1.90
2018-12-13T06:31:10.164Z,2.00
2018-12-13T06:33:39.265Z,2.00
2018-12-13T06:36:08.348Z,2.00
2018-12-13T06:38:37.435Z,2.00
2018-12-13T06:41:06.523Z,2.10
2018-12-13T06:43:35.742Z,2.10
2018-12-13T06:46:04.796Z,2.10
2018-12-13T06:48:33.827Z,2.00
2018-12-13T06:51:03.243Z,2.00
2018-12-13T06:53:38.679Z,2.00
2018-12-13T06:56:07.981Z,2.00
2018-12-13T06:58:37.843Z,2.00
2018-12-13T07:01:06.968Z,2.00
2018-12-13T07:03:35.988Z,2.00
2018-12-13T07:06:05.045Z,2.00
2018-12-13T07:08:34.059Z,2.10
2018-12-13T07:11:03.053Z,2.10
2018-12-13T07:13:32.117Z,2.10
2018-12-13T07:16:01.234Z,2.10
2018-12-13T07:18:30.331Z,2.20
2018-12-13T07:20:59.371Z,2.20
2018-12-13T07:23:28.374Z,2.20
2018-12-13T07:25:57.379Z,2.20
2018-12-13T07:28:26.389Z,2.20
2018-12-13T07:30:55.571Z,2.20
2018-12-13T07:33:24.681Z,2.20
2018-12-13T07:35:53.739Z,2.30
2018-12-13T07:38:22.891Z,2.30
2018-12-13T07:40:52.085Z,2.30
2018-12-13T07:43:21.240Z,2.30
2018-12-13T07:45:50.265Z,2.30
2018-12-13T07:48:19.342Z,2.20
2018-12-13T07:50:48.534Z,2.20
2018-12-13T07:53:17.723Z,2.20
2018-12-13T07:55:46.744Z,2.20
2018-12-13T07:58:15.824Z,2.30
2018-12-13T08:00:45.797Z,2.20
2018-12-13T08:03:14.812Z,2.20
2018-12-13T08:05:43.928Z,2.10
2018-12-13T08:08:20.659Z,2.10
2018-12-13T08:10:46.950Z,2.10
2018-12-13T08:13:17.526Z,2.10
2018-12-13T08:15:47.094Z,2.00
2018-12-13T08:18:16.718Z,1.90
2018-12-13T08:20:46.449Z,1.80
2018-12-13T08:23:20.767Z,1.80
2018-12-13T08:25:49.951Z,1.70
2018-12-13T08:28:20.620Z,1.70
2018-12-13T08:30:57.671Z,1.70
2018-12-13T08:33:28.108Z,1.70
2018-12-13T08:35:59.488Z,1.70
2018-12-13T08:38:29.333Z,1.70
2018-12-13T08:40:58.756Z,1.70
2018-12-13T08:43:28.220Z,1.70
2018-12-13T08:45:58.920Z,1.70
2018-12-13T08:48:28.044Z,1.80
2018-12-13T08:50:57.606Z,1.90
2018-12-13T08:53:26.714Z,2.00
2018-12-13T08:55:55.942Z,2.00
2018-12-13T08:58:25.066Z,2.10
2018-12-13T09:00:54.208Z,2.10
2018-12-13T09:03:24.328Z,2.20
2018-12-13T09:05:53.534Z,2.30
2018-12-13T09:08:22.674Z,2.20
2018-12-13T09:10:51.708Z,2.20
2018-12-13T09:13:23.296Z,2.20
2018-12-13T09:15:54.748Z,2.30
2018-12-13T09:18:23.999Z,2.30
2018-12-13T09:20:53.139Z,2.30
2018-12-13T09:23:22.268Z,2.40
2018-12-13T09:26:10.675Z,2.40
2018-12-13T09:31:46.981Z,2.40
2018-12-13T09:34:16.383Z,2.40
2018-12-13T09:36:45.429Z,2.50
2018-12-13T09:39:14.455Z,2.40
2018-12-13T09:41:43.654Z,2.50
2018-12-13T09:44:17.700Z,2.50
2018-12-13T09:47:50.056Z,2.50
2018-12-13T09:50:19.415Z,2.40
2018-12-13T09:52:48.532Z,2.50
2018-12-13T09:55:17.864Z,2.60
2018-12-13T09:57:47.175Z,2.70
2018-12-13T10:00:16.425Z,2.70
2018-12-13T10:02:45.642Z,2.70
2018-12-13T10:05:15.088Z,2.70
2018-12-13T10:07:45.025Z,2.60
2018-12-13T10:10:14.838Z,2.50
2018-12-13T10:12:44.016Z,2.40
2018-12-13T10:15:13.328Z,2.40
2018-12-13T10:17:42.407Z,2.50
2018-12-13T10:20:11.429Z,2.50
2018-12-13T10:22:40.448Z,2.50
2018-12-13T10:25:09.618Z,2.50
2018-12-13T10:27:38.778Z,2.50
2018-12-13T10:30:08.019Z,2.50
2018-12-13T10:32:37.063Z,2.50
2018-12-13T10:35:11.278Z,2.50
2018-12-13T10:37:37.707Z,2.50
2018-12-13T10:40:07.799Z,2.60
2018-12-13T10:42:36.957Z,2.60
2018-12-13T10:45:06.570Z,2.60
2018-12-13T10:47:35.602Z,2.70
2018-12-13T10:50:05.932Z,2.70
2018-12-13T10:52:35.065Z,2.80
2018-12-13T10:55:04.570Z,2.70
2018-12-13T10:57:33.650Z,2.70
2018-12-13T11:00:02.873Z,2.70
2018-12-13T11:02:52.058Z,2.70
2018-12-13T11:05:21.093Z,2.70
2018-12-13T11:07:50.142Z,2.70
2018-12-13T11:10:25.275Z,2.70
2018-12-13T11:12:50.314Z,2.70
2018-12-13T11:15:19.410Z,2.70
2018-12-13T11:17:48.500Z,2.80
2018-12-13T11:20:17.956Z,2.90
2018-12-13T11:22:47.055Z,3.00
2018-12-13T11:25:16.090Z,3.00
2018-12-13T11:28:30.238Z,3.10
2018-12-13T11:30:59.352Z,3.20
2018-12-13T11:33:28.648Z,3.30
2018-12-13T11:35:57.792Z,3.30
2018-12-13T11:38:26.839Z,3.50
2018-12-13T11:40:55.996Z,3.60
2018-12-13T11:43:25.128Z,3.60
2018-12-13T11:45:54.730Z,3.60
2018-12-13T11:48:23.969Z,3.70
2018-12-13T11:50:53.225Z,3.70
2018-12-13T11:53:22.356Z,3.60
2018-12-13T11:55:51.684Z,3.60
2018-12-13T11:58:20.892Z,3.70
2018-12-13T12:00:50.023Z,3.70
2018-12-13T12:03:19.228Z,3.70
2018-12-13T12:05:48.346Z,3.70
2018-12-13T12:08:18.607Z,3.80
2018-12-13T12:10:47.792Z,3.80
2018-12-13T12:13:16.982Z,3.80
2018-12-13T12:15:46.085Z,3.80
2018-12-13T12:18:15.365Z,3.80
2018-12-13T12:20:44.470Z,3.70
2018-12-13T12:23:13.584Z,3.70
2018-12-13T12:25:43.221Z,3.80
2018-12-13T12:28:12.520Z,3.80
2018-12-13T12:30:42.639Z,3.90
2018-12-13T12:33:12.035Z,3.90
2018-12-13T12:35:41.378Z,3.70
2018-12-13T12:38:11.008Z,3.70
2018-12-13T12:40:40.540Z,3.60
2018-12-13T12:43:10.576Z,3.60
2018-12-13T12:45:39.971Z,3.60
2018-12-13T12:48:10.089Z,3.60
2018-12-13T12:50:39.369Z,3.50
2018-12-13T12:53:08.765Z,3.50
2018-12-13T12:55:37.808Z,3.60
2018-12-13T12:58:06.940Z,3.60
2018-12-13T13:00:37.483Z,3.60
2018-12-13T13:03:07.584Z,3.60
2018-12-13T13:05:36.827Z,3.60
2018-12-13T13:08:05.979Z,3.70
2018-12-13T13:10:35.435Z,3.70
2018-12-13T13:13:06.909Z,3.70
2018-12-13T13:15:36.598Z,3.70
2018-12-13T13:18:06.324Z,3.70
2018-12-13T13:20:36.007Z,3.80
2018-12-13T13:23:05.715Z,3.70
2018-12-13T13:25:35.011Z,3.70
2018-12-13T13:28:04.202Z,3.70
2018-12-13T13:30:33.711Z,3.70
2018-12-13T13:33:02.775Z,3.70
2018-12-13T13:35:31.866Z,3.70
2018-12-13T13:38:01.544Z,3.70
2018-12-13T13:40:30.932Z,3.60
2018-12-13T13:43:00.368Z,3.60
2018-12-13T13:45:29.523Z,3.50
2018-12-13T13:47:58.947Z,3.50
2018-12-13T13:50:28.544Z,3.60
2018-12-13T13:52:57.743Z,3.50
2018-12-13T13:55:27.507Z,3.50
2018-12-13T13:57:56.629Z,3.50
2018-12-13T14:00:25.690Z,3.50
2018-12-13T14:02:55.196Z,3.50
2018-12-13T14:05:24.458Z,3.50
2018-12-13T14:07:53.588Z,3.50
2018-12-13T14:10:22.696Z,3.60
2018-12-13T14:12:52.550Z,3.60
2018-12-13T14:15:21.737Z,3.50
2018-12-13T14:17:50.809Z,3.60
2018-12-13T14:20:20.030Z,3.60
2018-12-13T14:22:50.353Z,3.60
2018-12-13T14:25:19.726Z,3.60
2018-12-13T14:27:48.828Z,3.70
2018-12-13T14:30:17.948Z,3.60
2018-12-13T14:32:47.005Z,3.60
2018-12-13T14:35:16.127Z,3.60
2018-12-13T14:37:45.497Z,3.60
2018-12-13T14:40:14.569Z,3.60
2018-12-13T14:42:43.758Z,3.70
2018-12-13T14:45:13.290Z,3.70
2018-12-13T14:47:42.319Z,3.60
2018-12-13T14:50:11.558Z,3.70
2018-12-13T14:52:40.644Z,3.70
2018-12-13T14:55:09.925Z,3.70
2018-12-13T14:57:38.976Z,3.70
2018-12-13T15:00:11.650Z,3.70
2018-12-13T15:02:40.846Z,3.70
2018-12-13T15:05:10.907Z,3.70
2018-12-13T15:07:40.144Z,3.70
2018-12-13T15:10:09.324Z,3.80
2018-12-13T15:12:38.578Z,3.70
2018-12-13T15:15:10.020Z,3.70
2018-12-13T15:17:39.166Z,3.70
2018-12-13T15:20:10.545Z,3.80
2018-12-13T15:22:40.371Z,3.80
2018-12-13T15:25:09.407Z,3.80
2018-12-13T15:27:38.697Z,3.80
2018-12-13T15:30:08.815Z,3.80
2018-12-13T15:32:37.920Z,3.80
2018-12-13T15:35:07.402Z,3.80
2018-12-13T15:37:37.818Z,3.90
2018-12-13T15:40:08.266Z,3.90
2018-12-13T15:45:26.885Z,3.90
2018-12-13T15:47:56.012Z,3.90
2018-12-13T15:50:25.067Z,3.90
2018-12-13T15:52:54.536Z,4.00
2018-12-13T15:55:23.652Z,3.90
2018-12-13T15:57:54.237Z,3.90
2018-12-13T16:00:23.443Z,3.90
2018-12-13T16:02:52.583Z,3.90
2018-12-13T16:05:21.693Z,3.90
2018-12-13T16:07:50.883Z,3.90
2018-12-13T16:10:20.113Z,3.80
2018-12-13T16:12:49.229Z,3.80
2018-12-13T16:15:18.364Z,3.90
2018-12-13T16:17:47.611Z,3.80
2018-12-13T16:20:16.956Z,3.90
2018-12-13T16:22:46.819Z,3.90
2018-12-13T16:25:16.804Z,3.80
2018-12-13T16:27:46.047Z,3.90
2018-12-13T16:30:16.161Z,3.90
2018-12-13T16:32:45.415Z,3.80
2018-12-13T16:35:14.596Z,3.80
2018-12-13T16:37:43.707Z,3.80
2018-12-13T16:40:12.950Z,3.70
2018-12-13T16:42:42.123Z,3.70
2018-12-13T16:45:11.287Z,3.70
2018-12-13T16:47:40.445Z,3.70
2018-12-13T16:50:09.737Z,3.70
2018-12-13T16:52:39.026Z,3.70
2018-12-13T16:55:08.280Z,3.70
2018-12-13T16:57:37.494Z,3.80
2018-12-13T17:00:07.994Z,3.80
2018-12-13T17:02:37.227Z,3.80
2018-12-13T17:05:06.408Z,3.70
2018-12-13T17:07:35.495Z,3.70
2018-12-13T17:10:04.970Z,3.70
2018-12-13T17:12:34.198Z,3.80
2018-12-13T17:15:03.328Z,3.80
2018-12-13T17:17:32.565Z,3.80
2018-12-13T17:20:01.698Z,3.70
2018-12-13T17:22:31.095Z,3.70
2018-12-13T17:25:00.951Z,3.60
2018-12-13T17:27:31.290Z,3.70
2018-12-13T17:30:01.171Z,3.70
2018-12-13T17:32:30.484Z,3.70
2018-12-13T17:34:59.936Z,3.70
2018-12-13T17:37:29.320Z,3.60
2018-12-13T17:39:58.576Z,3.70
2018-12-13T17:42:28.200Z,3.70
2018-12-13T17:44:57.735Z,3.70
2018-12-13T17:47:26.941Z,3.70
2018-12-13T17:49:56.195Z,3.70
2018-12-13T17:52:25.308Z,3.60
2018-12-13T17:55:02.678Z,3.60
2018-12-13T17:57:32.007Z,3.70
2018-12-13T18:00:02.369Z,3.70
2018-12-13T18:02:33.010Z,3.60
2018-12-13T18:05:02.478Z,3.60
2018-12-13T18:07:32.696Z,3.50
2018-12-13T18:10:02.079Z,3.50
2018-12-13T18:12:31.467Z,3.60
2018-12-13T18:15:00.871Z,3.60
2018-12-13T18:17:30.435Z,3.50
2018-12-13T18:20:00.523Z,3.60
2018-12-13T18:22:30.266Z,3.60
2018-12-13T18:24:59.442Z,3.60
2018-12-13T18:27:29.464Z,3.60
2018-12-13T18:29:58.779Z,3.50
2018-12-13T18:32:28.184Z,3.50
2018-12-13T18:34:57.846Z,3.40
2018-12-13T18:37:27.130Z,3.40
2018-12-13T18:39:57.020Z,3.40
2018-12-13T18:42:26.226Z,3.40
2018-12-13T18:44:55.756Z,3.40
2018-12-13T18:47:25.050Z,3.40
2018-12-13T18:49:54.255Z,3.50
2018-12-13T18:52:23.403Z,3.50
2018-12-13T18:54:53.381Z,3.60
2018-12-13T18:57:22.813Z,3.50
2018-12-13T18:59:52.075Z,3.50
2018-12-13T19:02:21.262Z,3.50
2018-12-13T19:04:50.480Z,3.40
2018-12-13T19:07:26.309Z,3.40
2018-12-13T19:09:55.469Z,3.40
2018-12-13T19:12:24.686Z,3.40
2018-12-13T19:14:53.882Z,3.40
2018-12-13T19:17:23.369Z,3.40
2018-12-13T19:19:52.984Z,3.40
2018-12-13T19:22:23.231Z,3.40
2018-12-13T19:27:35.452Z,3.30
2018-12-13T19:30:05.846Z,3.40
2018-12-13T19:32:35.381Z,3.40
2018-12-13T19:35:05.877Z,3.40
2018-12-13T19:37:40.740Z,3.40
2018-12-13T19:40:11.548Z,3.50
2018-12-13T19:42:42.202Z,3.50
2018-12-13T19:45:11.986Z,3.50
2018-12-13T19:47:46.465Z,3.50
2018-12-13T19:50:16.477Z,3.40
2018-12-13T19:52:46.196Z,3.40
2018-12-13T19:55:15.390Z,3.40
2018-12-13T19:57:44.640Z,3.40
2018-12-13T20:00:14.375Z,3.40
2018-12-13T20:02:43.828Z,3.40
2018-12-13T20:05:13.220Z,3.30
2018-12-13T20:07:42.588Z,3.30
2018-12-13T20:10:11.814Z,3.30
2018-12-13T20:12:41.239Z,3.30
2018-12-13T20:15:11.597Z,3.20
2018-12-13T20:17:43.057Z,3.20
2018-12-13T20:20:15.275Z,3.20
2018-12-13T20:22:46.032Z,3.20
2018-12-13T20:25:15.426Z,3.20
2018-12-13T20:27:45.056Z,3.20
2018-12-13T20:30:15.401Z,3.20
2018-12-13T20:32:45.004Z,3.20
2018-12-13T20:35:15.278Z,3.20
2018-12-13T20:37:45.654Z,3.30
2018-12-13T20:40:15.227Z,3.30
2018-12-13T20:42:44.981Z,3.30
2018-12-13T20:45:16.588Z,3.30
2018-12-13T20:47:45.886Z,3.30
2018-12-13T20:50:15.223Z,3.30
2018-12-13T20:52:44.561Z,3.30
2018-12-13T20:55:13.994Z,3.30
2018-12-13T20:57:44.004Z,3.20
2018-12-13T21:00:13.892Z,3.20
2018-12-13T21:02:43.253Z,3.20
2018-12-13T21:05:12.406Z,3.10
2018-12-13T21:07:41.606Z,3.10
2018-12-13T21:10:11.396Z,3.20
2018-12-13T21:12:40.557Z,3.20
2018-12-13T21:15:10.346Z,3.10
2018-12-13T21:17:39.705Z,3.10
2018-12-13T21:20:09.060Z,3.20
2018-12-13T21:22:38.788Z,3.10
2018-12-13T21:25:08.442Z,3.10
2018-12-13T21:27:37.677Z,3.10
2018-12-13T21:30:08.088Z,3.10
2018-12-13T21:32:38.510Z,3.00
2018-12-13T21:35:08.670Z,3.00
2018-12-13T21:37:38.404Z,3.00
2018-12-13T21:40:08.197Z,2.90
2018-12-13T21:42:37.538Z,3.00
2018-12-13T21:45:08.014Z,3.10
2018-12-13T21:47:37.569Z,3.10
2018-12-13T21:50:08.429Z,3.10
2018-12-13T21:52:38.264Z,3.10
2018-12-13T21:55:08.370Z,3.10
2018-12-13T21:57:38.124Z,3.00
2018-12-13T22:00:10.847Z,3.00
2018-12-13T22:02:40.747Z,3.00
2018-12-13T22:05:12.126Z,3.00
2018-12-13T22:07:41.945Z,3.00
2018-12-13T22:10:11.376Z,3.10
2018-12-13T22:12:40.682Z,3.00
2018-12-13T22:15:12.046Z,3.00
2018-12-13T22:17:41.656Z,3.00
2018-12-13T22:20:10.938Z,2.90
2018-12-13T22:22:40.410Z,2.80
2018-12-13T22:25:10.494Z,2.70
2018-12-13T22:27:39.792Z,2.80
2018-12-13T22:30:09.027Z,2.80
2018-12-13T22:32:38.184Z,2.90
2018-12-13T22:35:07.459Z,2.90
2018-12-13T22:37:36.573Z,2.80
2018-12-13T22:40:06.130Z,2.80
2018-12-13T22:42:35.389Z,2.80
2018-12-13T22:45:05.349Z,2.80
2018-12-13T22:47:34.582Z,2.70
2018-12-13T22:50:03.946Z,2.70
2018-12-13T22:52:33.081Z,2.70
2018-12-13T22:55:02.298Z,2.70
2018-12-13T22:57:31.471Z,2.70
2018-12-13T23:00:00.727Z,2.70
2018-12-13T23:02:30.401Z,2.70
2018-12-13T23:04:59.574Z,2.70
2018-12-13T23:07:31.206Z,2.70
2018-12-13T23:10:00.622Z,2.70
2018-12-13T23:12:29.941Z,2.70
2018-12-13T23:15:00.769Z,2.70
2018-12-13T23:17:30.069Z,2.70
2018-12-13T23:19:59.190Z,2.60
2018-12-13T23:22:28.383Z,2.70
2018-12-13T23:24:57.572Z,2.60
2018-12-13T23:27:26.936Z,2.60
2018-12-13T23:29:56.255Z,2.60
2018-12-13T23:32:25.728Z,2.70
2018-12-13T23:34:54.964Z,2.70
2018-12-13T23:37:25.230Z,2.70
2018-12-13T23:39:54.784Z,2.80
2018-12-13T23:42:24.013Z,2.70
2018-12-13T23:44:53.119Z,2.70
2018-12-13T23:47:22.744Z,2.70
2018-12-13T23:49:51.903Z,2.80
2018-12-13T23:52:21.278Z,2.70
2018-12-13T23:54:58.982Z,2.70
2018-12-13T23:57:28.535Z,2.70
2018-12-13T23:59:57.807Z,2.70
